This is the latest recevied weather packets stored in our database for station/object OK1TBF-14. If no packets are shown the sender has not sent any weather packets the latest 10 day(s).
| Time | Temp. | Humidity | Pressure | Rain* | Wind** | Luminosity | Snow |
|---|---|---|---|---|---|---|---|
| 1777748403 | 16.67° C | 36% | 1019.6 hPa | 0 mm | - | 0 W/m² | - |
| 1777732203 | 22.78° C | 29% | 1021 hPa | 0 mm | - | 538 W/m² | - |
| 1777730403 | 22.78° C | 29% | 1021.5 hPa | 0 mm | - | 615 W/m² | - |
| 1777728603 | 22.22° C | 28% | 1021.7 hPa | 0 mm | - | 673 W/m² | - |
| 1777726803 | 22.22° C | 32% | 1022.1 hPa | 0 mm | - | 740 W/m² | - |
| 1777723203 | 21.67° C | 31% | 1022.7 hPa | 0 mm | - | 836 W/m² | - |
| 1777687224 | 10.56° C | 58% | 1024.9 hPa | 0 mm | - | 0 W/m² | - |
| 1777681804 | 10.56° C | 57% | 1025.1 hPa | 0 mm | - | 0 W/m² | - |
| 1777680003 | 10° C | 58% | 1025.3 hPa | 0 mm | - | 0 W/m² | - |
| 1777672804 | 12.22° C | 50% | 1025.9 hPa | 0 mm | - | 0 W/m² | - |
| 1777660203 | 15.56° C | 41% | 1025.4 hPa | 0 mm | - | 0 W/m² | - |
| 1777651203 | 21.67° C | 31% | 1024.8 hPa | 0 mm | - | 246 W/m² | - |
| 1777647603 | 20.56° C | 33% | 1025.2 hPa | 0 mm | - | 445 W/m² | - |
| 1777633204 | 17.78° C | 37% | 1027.5 hPa | 0 mm | - | 881 W/m² | - |
| 1777617003 | 10° C | 54% | 1028.3 hPa | 0 mm | - | 358 W/m² | - |
| 1777593603 | 7.22° C | 56% | 1028.1 hPa | 0 mm | - | 0 W/m² | - |
| 1777579203 | 7.78° C | 49% | 1028.4 hPa | 0 mm | - | 0 W/m² | - |
| 1777568403 | 14.44° C | 34% | 1027.3 hPa | 0 mm | - | 77 W/m² | - |
| 1777561203 | 13.89° C | 33% | 1027.4 hPa | 0 mm | - | 440 W/m² | - |
| 1777554003 | 13.33° C | 28% | 1028.7 hPa | 0 mm | - | 738 W/m² | - |
| 1777548603 | 12.78° C | 31% | 1029 hPa | 0 mm | - | 848 W/m² | - |
| 1777545003 | 12.22° C | 33% | 1029.7 hPa | 0 mm | - | 858 W/m² | - |
| 1777494603 | 3.33° C | 41% | 1028.6 hPa | 0 mm | - | 0 W/m² | - |
| 1777489203 | 4.44° C | 37% | 1027.5 hPa | 0 mm | - | 0 W/m² | - |
| 1777485603 | 6.11° C | 34% | 1027.1 hPa | 0 mm | - | 8 W/m² | - |
* Rain latest hour (hover to see other rain measurements)
** Current wind speed in m/s (hover to see current wind gust speed)